createdAt,value
2019-06-20T00:01:02.125Z,18.2
2019-06-20T00:02:09.357Z,18.2
2019-06-20T00:03:16.606Z,18.1
2019-06-20T00:04:23.835Z,18.2
2019-06-20T00:05:31.072Z,18.1
2019-06-20T00:06:38.321Z,18.1
2019-06-20T00:07:45.557Z,18.1
2019-06-20T00:08:52.773Z,18
2019-06-20T00:10:00.007Z,18
2019-06-20T00:11:07.227Z,18
2019-06-20T00:12:14.456Z,18
2019-06-20T00:13:21.676Z,18
2019-06-20T00:14:28.629Z,18
2019-06-20T00:15:35.847Z,18
2019-06-20T00:16:43.083Z,18
2019-06-20T00:17:50.308Z,18
2019-06-20T00:18:57.579Z,18
2019-06-20T00:20:04.549Z,18
2019-06-20T00:21:11.509Z,17.9
2019-06-20T00:22:18.500Z,17.9
2019-06-20T00:23:25.491Z,17.9
2019-06-20T00:24:32.784Z,17.9
2019-06-20T00:25:40.033Z,17.9
2019-06-20T00:26:47.239Z,17.9
2019-06-20T00:27:54.471Z,17.9
2019-06-20T00:29:01.738Z,17.9
2019-06-20T00:30:08.680Z,17.9
2019-06-20T00:31:15.953Z,17.9
2019-06-20T00:32:23.178Z,17.9
2019-06-20T00:33:30.401Z,17.9
2019-06-20T00:34:37.352Z,17.9
2019-06-20T00:35:44.579Z,17.9
2019-06-20T00:36:51.986Z,17.9
2019-06-20T00:37:59.431Z,17.9
2019-06-20T00:39:06.678Z,17.9
2019-06-20T00:40:13.886Z,17.9
2019-06-20T00:41:21.141Z,17.9
2019-06-20T00:42:28.357Z,17.9
2019-06-20T00:43:35.313Z,17.9
2019-06-20T00:44:42.529Z,17.8
2019-06-20T00:45:49.484Z,17.8
2019-06-20T00:46:56.434Z,17.8
2019-06-20T00:48:03.717Z,17.8
2019-06-20T00:49:10.952Z,17.8
2019-06-20T00:50:18.185Z,17.8
2019-06-20T00:51:25.547Z,17.8
2019-06-20T00:52:32.773Z,17.8
2019-06-20T00:53:39.979Z,17.8
2019-06-20T00:54:47.216Z,17.7
2019-06-20T00:55:54.431Z,17.7
2019-06-20T00:57:01.678Z,17.8
2019-06-20T00:58:09.005Z,17.8
2019-06-20T00:59:16.241Z,17.8
2019-06-20T01:00:23.463Z,17.8
2019-06-20T01:01:30.693Z,17.8
2019-06-20T01:02:37.914Z,17.8
2019-06-20T01:03:45.149Z,17.7
2019-06-20T01:04:52.370Z,17.7
2019-06-20T01:05:59.332Z,17.7
2019-06-20T01:07:06.301Z,17.8
2019-06-20T01:08:13.553Z,17.8
2019-06-20T01:09:20.761Z,17.8
2019-06-20T01:10:28.000Z,17.8
2019-06-20T01:11:34.959Z,17.8
2019-06-20T01:12:41.639Z,17.8
2019-06-20T01:13:48.313Z,17.8
2019-06-20T01:14:59.054Z,17.9
2019-06-20T01:16:06.295Z,18.2
2019-06-20T01:17:13.569Z,18.4
2019-06-20T01:18:20.921Z,18.4
2019-06-20T01:19:27.984Z,18.3
2019-06-20T01:20:35.188Z,18
2019-06-20T01:21:42.475Z,17.8
2019-06-20T01:22:49.412Z,17.7
2019-06-20T01:23:56.641Z,17.6
2019-06-20T01:25:03.852Z,17.6
2019-06-20T01:26:11.118Z,17.6
2019-06-20T01:27:18.061Z,17.5
2019-06-20T01:28:25.292Z,17.4
2019-06-20T01:29:32.504Z,17.4
2019-06-20T01:30:39.731Z,17.5
2019-06-20T01:31:46.676Z,17.5
2019-06-20T01:32:53.910Z,17.5
2019-06-20T01:34:00.846Z,17.5
2019-06-20T01:35:08.087Z,17.6
2019-06-20T01:36:14.755Z,17.7
2019-06-20T01:37:21.715Z,17.7
2019-06-20T01:38:28.927Z,17.6
2019-06-20T01:39:36.153Z,17.6
2019-06-20T01:40:43.377Z,17.6
2019-06-20T01:41:50.337Z,17.6
2019-06-20T01:42:57.555Z,17.6
2019-06-20T01:44:04.796Z,17.6
2019-06-20T01:45:12.017Z,17.6
2019-06-20T01:46:19.245Z,17.6
2019-06-20T01:47:26.471Z,17.5
2019-06-20T01:48:33.712Z,17.5
2019-06-20T01:49:40.928Z,17.4
2019-06-20T01:50:48.156Z,17.4
2019-06-20T01:51:55.431Z,17.4
2019-06-20T01:53:02.676Z,17.4
2019-06-20T01:54:09.899Z,17.4
2019-06-20T01:55:16.854Z,17.4
2019-06-20T01:56:24.081Z,17.3
2019-06-20T01:57:31.301Z,17.3
2019-06-20T01:58:38.526Z,17.3
2019-06-20T01:59:45.749Z,17.3
2019-06-20T02:00:52.701Z,17.3
2019-06-20T02:01:59.950Z,17.4
2019-06-20T02:03:07.180Z,17.3
2019-06-20T02:04:14.403Z,17.4
2019-06-20T02:05:21.629Z,17.3
2019-06-20T02:06:28.628Z,17.3
2019-06-20T02:07:35.594Z,17.2
2019-06-20T02:08:42.566Z,17.3
2019-06-20T02:09:49.809Z,17.2
2019-06-20T02:10:57.063Z,17.3
2019-06-20T02:12:04.244Z,17.3
2019-06-20T02:13:11.475Z,17.3
2019-06-20T02:14:18.684Z,17.3
2019-06-20T02:15:25.919Z,17.3
2019-06-20T02:16:33.153Z,17.3
2019-06-20T02:17:40.139Z,17.2
2019-06-20T02:18:47.367Z,17.2
2019-06-20T02:19:54.053Z,17.2
2019-06-20T02:21:01.281Z,17.2
2019-06-20T02:22:08.535Z,17.2
2019-06-20T02:23:15.740Z,17.2
2019-06-20T02:24:23.009Z,17.2
2019-06-20T02:25:29.958Z,17.1
2019-06-20T02:26:36.917Z,17.1
2019-06-20T02:27:44.140Z,17.1
2019-06-20T02:28:51.363Z,17
2019-06-20T02:29:58.316Z,17
2019-06-20T02:31:05.293Z,17
2019-06-20T02:32:12.512Z,16.9
2019-06-20T02:33:19.475Z,16.9
2019-06-20T02:34:26.692Z,16.9
2019-06-20T02:35:33.918Z,16.9
2019-06-20T02:36:40.859Z,16.9
2019-06-20T02:37:48.099Z,16.9
2019-06-20T02:38:55.046Z,16.9
2019-06-20T02:40:02.030Z,16.9
2019-06-20T02:41:09.248Z,16.9
2019-06-20T02:42:16.214Z,16.9
2019-06-20T02:43:23.165Z,16.9
2019-06-20T02:44:31.379Z,16.9
2019-06-20T02:45:38.337Z,16.9
2019-06-20T02:46:45.569Z,16.9
2019-06-20T02:47:52.792Z,16.9
2019-06-20T02:49:00.023Z,17
2019-06-20T02:50:06.688Z,16.9
2019-06-20T02:51:13.910Z,16.9
2019-06-20T02:52:21.130Z,16.9
2019-06-20T02:53:27.558Z,16.8
2019-06-20T02:54:34.798Z,16.8
2019-06-20T02:55:42.030Z,16.8
2019-06-20T02:56:49.275Z,16.8
2019-06-20T02:57:56.515Z,16.8
2019-06-20T02:59:03.881Z,16.8
2019-06-20T03:00:11.111Z,16.8
2019-06-20T03:01:18.323Z,16.8
2019-06-20T03:02:25.274Z,16.8
2019-06-20T03:03:32.496Z,16.7
2019-06-20T03:04:39.723Z,16.7
2019-06-20T03:05:46.679Z,16.7
2019-06-20T03:06:53.637Z,16.6
2019-06-20T03:08:00.859Z,16.5
2019-06-20T03:09:07.874Z,16.5
2019-06-20T03:10:15.105Z,16.5
2019-06-20T03:11:22.342Z,16.5
2019-06-20T03:12:29.560Z,16.5
2019-06-20T03:13:36.517Z,16.5
2019-06-20T03:14:46.353Z,16.5
2019-06-20T03:15:53.591Z,16.5
2019-06-20T03:17:00.812Z,16.4
2019-06-20T03:18:07.846Z,16.5
2019-06-20T03:19:15.070Z,16.5
2019-06-20T03:20:22.299Z,16.5
2019-06-20T03:21:29.520Z,16.5
2019-06-20T03:22:36.484Z,16.6
2019-06-20T03:23:43.454Z,16.5
2019-06-20T03:24:50.695Z,16.5
2019-06-20T03:25:57.708Z,16.5
2019-06-20T03:27:04.937Z,16.5
2019-06-20T03:28:12.154Z,16.5
2019-06-20T03:29:19.389Z,16.5
2019-06-20T03:30:26.331Z,16.5
2019-06-20T03:31:33.579Z,16.5
2019-06-20T03:32:40.872Z,16.5
2019-06-20T03:33:47.846Z,16.5
2019-06-20T03:34:55.063Z,16.5
2019-06-20T03:36:02.131Z,16.5
2019-06-20T03:37:09.355Z,16.5
2019-06-20T03:38:16.584Z,16.5
2019-06-20T03:39:23.802Z,16.6
2019-06-20T03:40:31.024Z,16.6
2019-06-20T03:41:38.237Z,16.6
2019-06-20T03:42:45.474Z,16.6
2019-06-20T03:43:52.715Z,16.5
2019-06-20T03:45:03.139Z,16.5
2019-06-20T03:46:10.353Z,16.5
2019-06-20T03:47:17.588Z,16.5
2019-06-20T03:48:24.825Z,16.5
2019-06-20T03:49:32.060Z,16.5
2019-06-20T03:50:39.279Z,16.5
2019-06-20T03:51:46.507Z,16.6
2019-06-20T03:52:53.725Z,16.5
2019-06-20T03:54:00.950Z,16.6
2019-06-20T03:55:08.165Z,16.6
2019-06-20T03:56:15.394Z,16.6
2019-06-20T03:57:22.604Z,16.6
2019-06-20T03:58:29.839Z,16.6
2019-06-20T03:59:37.063Z,16.7
2019-06-20T04:00:44.309Z,16.7
2019-06-20T04:01:51.320Z,16.7
2019-06-20T04:02:58.577Z,16.6
2019-06-20T04:04:05.793Z,16.6
2019-06-20T04:05:13.057Z,16.6
2019-06-20T04:06:20.255Z,16.6
2019-06-20T04:07:27.490Z,16.6
2019-06-20T04:08:34.424Z,16.7
2019-06-20T04:09:41.666Z,16.7
2019-06-20T04:10:48.624Z,16.7
2019-06-20T04:11:55.854Z,16.6
2019-06-20T04:13:02.790Z,16.7
2019-06-20T04:14:10.012Z,16.7
2019-06-20T04:15:20.083Z,16.7
2019-06-20T04:16:27.327Z,16.7
2019-06-20T04:17:34.581Z,16.7
2019-06-20T04:18:41.812Z,16.6
2019-06-20T04:19:49.033Z,16.6
2019-06-20T04:20:56.456Z,16.6
2019-06-20T04:22:03.709Z,16.6
2019-06-20T04:23:10.942Z,16.6
2019-06-20T04:24:18.157Z,16.6
2019-06-20T04:25:25.394Z,16.5
2019-06-20T04:26:32.621Z,16.5
2019-06-20T04:27:39.838Z,16.5
2019-06-20T04:28:47.058Z,16.6
2019-06-20T04:29:54.298Z,16.6
2019-06-20T04:31:01.515Z,16.6
2019-06-20T04:32:08.740Z,16.6
2019-06-20T04:33:15.959Z,16.6
2019-06-20T04:34:23.182Z,16.6
2019-06-20T04:35:30.161Z,16.6
2019-06-20T04:36:37.386Z,16.6
2019-06-20T04:37:44.600Z,16.6
2019-06-20T04:38:51.819Z,16.6
2019-06-20T04:39:59.039Z,16.6
2019-06-20T04:41:06.291Z,16.6
2019-06-20T04:42:13.506Z,16.6
2019-06-20T04:43:20.743Z,16.6
2019-06-20T04:44:27.977Z,16.6
2019-06-20T04:45:36.302Z,16.6
2019-06-20T04:46:43.533Z,16.5
2019-06-20T04:47:50.494Z,16.5
2019-06-20T04:48:57.926Z,16.4
2019-06-20T04:50:05.178Z,16.5
2019-06-20T04:51:12.388Z,16.5
2019-06-20T04:52:19.332Z,16.5
2019-06-20T04:53:26.564Z,16.6
2019-06-20T04:54:33.548Z,16.6
2019-06-20T04:55:40.777Z,16.7
2019-06-20T04:56:48.001Z,16.8
2019-06-20T04:57:55.214Z,16.9
2019-06-20T04:59:02.491Z,16.9
2019-06-20T05:00:09.820Z,17
2019-06-20T05:01:17.039Z,17.1
2019-06-20T05:02:23.976Z,17.1
2019-06-20T05:03:31.462Z,17.2
2019-06-20T05:04:38.675Z,17.2
2019-06-20T05:05:45.900Z,17.2
2019-06-20T05:06:53.119Z,17.3
2019-06-20T05:08:00.353Z,17.3
2019-06-20T05:09:07.559Z,17.3
2019-06-20T05:10:14.785Z,17.3
2019-06-20T05:11:22.012Z,17.4
2019-06-20T05:12:28.977Z,17.4
2019-06-20T05:13:35.911Z,17.4
2019-06-20T05:14:43.140Z,17.4
2019-06-20T05:15:53.710Z,17.5
2019-06-20T05:17:00.940Z,17.6
2019-06-20T05:18:08.155Z,17.7
2019-06-20T05:19:15.399Z,17.8
2019-06-20T05:20:22.881Z,17.9
2019-06-20T05:21:30.106Z,18
2019-06-20T05:22:37.049Z,18.1
2019-06-20T05:23:44.285Z,18
2019-06-20T05:24:51.500Z,18.1
2019-06-20T05:25:58.725Z,18.2
2019-06-20T05:27:05.952Z,18.3
2019-06-20T05:28:12.915Z,18.4
2019-06-20T05:29:20.149Z,18.5
2019-06-20T05:30:27.385Z,18.5
2019-06-20T05:31:34.603Z,18.6
2019-06-20T05:32:41.834Z,18.6
2019-06-20T05:33:49.049Z,18.6
2019-06-20T05:34:56.276Z,18.7
2019-06-20T05:36:03.495Z,18.6
2019-06-20T05:37:10.454Z,18.6
2019-06-20T05:38:17.666Z,18.5
2019-06-20T05:39:24.893Z,18.4
2019-06-20T05:40:32.173Z,18.3
2019-06-20T05:41:43.826Z,18.4
2019-06-20T05:42:51.038Z,18.4
2019-06-20T05:43:58.558Z,18.4
2019-06-20T05:45:05.518Z,18.3
2019-06-20T05:46:12.748Z,18.4
2019-06-20T05:47:19.962Z,18.6
2019-06-20T05:48:26.640Z,18.7
2019-06-20T05:49:33.855Z,18.7
2019-06-20T05:50:41.091Z,18.7
2019-06-20T05:51:48.031Z,18.6
2019-06-20T05:52:54.987Z,18.6
2019-06-20T05:54:02.206Z,18.6
2019-06-20T05:55:09.158Z,18.6
2019-06-20T05:56:16.376Z,18.5
2019-06-20T05:57:23.336Z,18.5
2019-06-20T05:58:30.572Z,18.7
2019-06-20T05:59:37.815Z,18.7
2019-06-20T06:00:45.082Z,18.6
2019-06-20T06:01:55.348Z,18.7
2019-06-20T06:03:07.458Z,18.6
2019-06-20T06:04:14.437Z,18.5
2019-06-20T06:05:21.425Z,18.5
2019-06-20T06:06:28.647Z,18.6
2019-06-20T06:07:36.697Z,18.8
2019-06-20T06:08:43.925Z,18.9
2019-06-20T06:09:51.142Z,19.1
2019-06-20T06:10:58.840Z,19
2019-06-20T06:12:06.110Z,18.9
2019-06-20T06:13:13.334Z,19
2019-06-20T06:14:20.549Z,18.9
2019-06-20T06:15:27.516Z,18.9
2019-06-20T06:16:34.462Z,18.8
2019-06-20T06:17:42.640Z,18.8
2019-06-20T06:18:49.862Z,19
2019-06-20T06:19:56.825Z,19.2
2019-06-20T06:21:04.082Z,19.4
2019-06-20T06:22:11.313Z,19.5
2019-06-20T06:23:18.004Z,19.5
2019-06-20T06:24:24.974Z,19.4
2019-06-20T06:25:32.217Z,19.3
2019-06-20T06:26:39.180Z,19.3
2019-06-20T06:27:46.365Z,19.2
2019-06-20T06:28:53.303Z,19.3
2019-06-20T06:30:00.525Z,19.5
2019-06-20T06:31:07.806Z,19.6
2019-06-20T06:32:15.025Z,19.8
2019-06-20T06:33:26.358Z,20.2
2019-06-20T06:34:33.587Z,20.4
2019-06-20T06:35:40.822Z,20.4
2019-06-20T06:36:48.077Z,20.3
2019-06-20T06:37:55.334Z,20.3
2019-06-20T06:39:02.552Z,20.3
2019-06-20T06:40:09.778Z,20.5
2019-06-20T06:41:17.004Z,20.8
2019-06-20T06:42:23.963Z,20.8
2019-06-20T06:43:31.186Z,20.8
2019-06-20T06:44:38.445Z,20.9
2019-06-20T06:45:45.656Z,20.9
2019-06-20T06:46:59.801Z,20.9
2019-06-20T06:48:06.834Z,20.8
2019-06-20T06:49:14.063Z,20.7
2019-06-20T06:50:21.285Z,20.7
2019-06-20T06:51:28.511Z,20.8
2019-06-20T06:52:35.771Z,20.7
2019-06-20T06:53:43.018Z,20.8
2019-06-20T06:54:49.966Z,20.8
2019-06-20T06:55:57.208Z,20.9
2019-06-20T06:57:04.426Z,20.9
2019-06-20T06:58:11.665Z,21
2019-06-20T06:59:18.883Z,20.9
2019-06-20T07:00:26.117Z,20.7
2019-06-20T07:01:33.340Z,20.8
2019-06-20T07:02:40.567Z,21
2019-06-20T07:03:47.984Z,21
2019-06-20T07:04:55.223Z,21.1
2019-06-20T07:06:02.486Z,21.2
2019-06-20T07:07:09.794Z,21.2
2019-06-20T07:08:17.032Z,21.1
2019-06-20T07:09:23.998Z,21.3
2019-06-20T07:10:31.212Z,21.3
2019-06-20T07:11:37.901Z,21.3
2019-06-20T07:12:45.246Z,21.2
2019-06-20T07:13:52.483Z,21.3
2019-06-20T07:14:59.740Z,21.3
2019-06-20T07:16:07.046Z,21.1
2019-06-20T07:17:14.273Z,21.2
2019-06-20T07:18:21.591Z,21.4
2019-06-20T07:19:28.824Z,21.7
2019-06-20T07:20:36.075Z,21.8
2019-06-20T07:21:43.301Z,21.7
2019-06-20T07:22:50.531Z,21.8
2019-06-20T07:23:57.797Z,21.8
2019-06-20T07:25:05.047Z,21.8
2019-06-20T07:26:12.265Z,21.8
2019-06-20T07:27:19.498Z,21.7
2019-06-20T07:28:26.718Z,21.6
2019-06-20T07:29:33.974Z,21.5
2019-06-20T07:30:41.197Z,21.5
2019-06-20T07:31:48.155Z,21.4
2019-06-20T07:32:55.374Z,21.3
2019-06-20T07:34:02.611Z,21.3
2019-06-20T07:35:09.827Z,21.3
2019-06-20T07:36:17.071Z,21.3
2019-06-20T07:37:24.292Z,21.4
2019-06-20T07:38:31.553Z,21.6
2019-06-20T07:39:38.774Z,21.8
2019-06-20T07:40:46.033Z,22
2019-06-20T07:41:53.260Z,22.1
2019-06-20T07:43:00.529Z,22.3
2019-06-20T07:44:07.759Z,22.2
2019-06-20T07:45:15.029Z,22.2
2019-06-20T07:46:22.272Z,22.2
2019-06-20T07:47:29.499Z,22.2
2019-06-20T07:48:36.714Z,22.2
2019-06-20T07:49:43.955Z,22.1
2019-06-20T07:50:51.175Z,22.1
2019-06-20T07:51:58.406Z,22
2019-06-20T07:53:05.615Z,22.1
2019-06-20T07:54:12.861Z,22.3
2019-06-20T07:55:20.084Z,22.6
2019-06-20T07:56:27.318Z,22.4
2019-06-20T07:57:34.534Z,22.5
2019-06-20T07:58:41.776Z,22.5
2019-06-20T07:59:49.013Z,22.5
2019-06-20T08:00:56.004Z,22.7
2019-06-20T08:02:03.000Z,22.7
2019-06-20T08:03:10.087Z,22.9
2019-06-20T08:04:17.320Z,23.2
2019-06-20T08:05:24.601Z,23.3
2019-06-20T08:06:31.835Z,23.3
2019-06-20T08:07:38.812Z,23.3
2019-06-20T08:08:46.033Z,23.4
2019-06-20T08:09:52.445Z,23.4
2019-06-20T08:10:59.710Z,23.4
2019-06-20T08:12:06.983Z,23.4
2019-06-20T08:13:14.271Z,23.2
2019-06-20T08:14:21.506Z,23.3
2019-06-20T08:15:28.729Z,23.4
2019-06-20T08:16:35.995Z,23.5
2019-06-20T08:17:43.442Z,23.5
2019-06-20T08:18:50.613Z,23.5
2019-06-20T08:19:57.869Z,23.5
2019-06-20T08:21:05.176Z,23.7
2019-06-20T08:22:12.389Z,23.5
2019-06-20T08:23:19.154Z,23.4
2019-06-20T08:24:26.113Z,23.4
2019-06-20T08:25:33.351Z,23.4
2019-06-20T08:26:40.572Z,23.4
2019-06-20T08:27:47.800Z,23.5
2019-06-20T08:29:20.951Z,23.4
2019-06-20T08:30:28.602Z,23.4
2019-06-20T08:31:35.858Z,23.4
2019-06-20T08:32:43.120Z,23.3
2019-06-20T08:33:50.342Z,23.4
2019-06-20T08:35:00.531Z,23.3
2019-06-20T08:36:10.751Z,23.3
2019-06-20T08:37:17.979Z,23.4
2019-06-20T08:38:25.202Z,23.6
2019-06-20T08:39:32.429Z,23.5
2019-06-20T08:40:39.665Z,23.4
2019-06-20T08:41:46.900Z,23.5
2019-06-20T08:42:55.219Z,23.5
2019-06-20T08:44:07.727Z,23.5
2019-06-20T08:45:14.957Z,23.6
2019-06-20T08:46:22.233Z,23.6
2019-06-20T08:47:29.469Z,23.6
2019-06-20T08:48:36.702Z,23.5
2019-06-20T08:49:43.928Z,23.4
2019-06-20T08:50:51.232Z,23.2
2019-06-20T08:51:59.184Z,23.2
2019-06-20T08:53:07.579Z,23.3
2019-06-20T08:54:14.779Z,23.4
2019-06-20T08:55:21.745Z,23.6
2019-06-20T08:56:29.006Z,23.8
2019-06-20T08:57:36.230Z,24.2
2019-06-20T08:58:43.206Z,24.4
2019-06-20T08:59:50.442Z,24.5
2019-06-20T09:02:13.621Z,24.7
2019-06-20T09:03:20.848Z,24.5
2019-06-20T09:04:28.097Z,24.3
2019-06-20T09:05:35.352Z,24.2
2019-06-20T09:06:42.314Z,24.3
2019-06-20T09:07:49.532Z,24.3
2019-06-20T09:08:58.487Z,24.5
2019-06-20T09:10:06.793Z,24.7
2019-06-20T09:11:14.014Z,24.9
2019-06-20T09:12:21.385Z,24.9
2019-06-20T09:13:28.651Z,24.9
2019-06-20T09:14:35.598Z,24.9
2019-06-20T09:15:42.838Z,24.9
2019-06-20T09:16:50.057Z,24.9
2019-06-20T09:17:58.733Z,24.9
2019-06-20T09:19:06.718Z,24.9
2019-06-20T09:20:13.971Z,25.2
2019-06-20T09:21:20.918Z,25.2
2019-06-20T09:22:27.587Z,25.2
2019-06-20T09:23:36.321Z,25.1
2019-06-20T09:24:43.288Z,25
2019-06-20T09:25:52.668Z,25
2019-06-20T09:26:59.863Z,25.3
2019-06-20T09:28:07.139Z,25.5
2019-06-20T09:29:14.380Z,25.4
2019-06-20T09:30:21.327Z,25.4
2019-06-20T09:31:28.539Z,25.7
2019-06-20T09:32:35.759Z,25.5
2019-06-20T09:33:42.714Z,25.3
2019-06-20T09:34:53.010Z,25.3
2019-06-20T09:36:04.490Z,25.6
2019-06-20T09:37:11.444Z,25.8
2019-06-20T09:38:18.667Z,26
2019-06-20T09:39:25.902Z,26.3
2019-06-20T09:40:33.133Z,26.5
2019-06-20T09:41:40.358Z,26.6
2019-06-20T09:42:47.616Z,26.3
2019-06-20T09:43:54.846Z,26.1
2019-06-20T09:45:03.464Z,25.9
2019-06-20T09:46:10.684Z,25.7
2019-06-20T09:47:17.940Z,25.7
2019-06-20T09:48:25.166Z,25.8
2019-06-20T09:49:32.110Z,25.9
2019-06-20T09:50:39.327Z,26.2
2019-06-20T09:51:46.287Z,26.2
2019-06-20T09:52:58.268Z,26.1
2019-06-20T09:54:05.666Z,26.1
2019-06-20T09:55:12.903Z,26
2019-06-20T09:56:20.144Z,26.1
2019-06-20T09:57:27.369Z,26.1
2019-06-20T09:58:34.625Z,26
2019-06-20T10:00:07.506Z,26
2019-06-20T10:01:17.838Z,26.1
2019-06-20T10:02:25.159Z,26.5
2019-06-20T10:03:32.443Z,26.8
2019-06-20T10:04:39.665Z,26.4
2019-06-20T10:05:50.589Z,26.3
2019-06-20T10:06:59.258Z,26.2
2019-06-20T10:08:06.508Z,26.2
2019-06-20T10:09:13.747Z,26.2
2019-06-20T10:10:21.049Z,26.1
2019-06-20T10:11:28.287Z,26.2
2019-06-20T10:12:35.529Z,26.6
2019-06-20T10:13:42.752Z,26.9
2019-06-20T10:14:54.025Z,26.7
2019-06-20T10:16:03.095Z,27.1
2019-06-20T10:17:10.389Z,27.2
2019-06-20T10:18:17.621Z,27.4
2019-06-20T10:19:24.575Z,27.5
2019-06-20T10:20:31.251Z,27.5
2019-06-20T10:21:38.493Z,27.4
2019-06-20T10:22:48.497Z,27.3
2019-06-20T10:23:57.253Z,27.4
2019-06-20T10:25:04.481Z,27.4
2019-06-20T10:26:11.443Z,27.6
2019-06-20T10:27:18.662Z,28
2019-06-20T10:28:25.605Z,28
2019-06-20T10:29:32.823Z,27.7
2019-06-20T10:30:40.070Z,27.6
2019-06-20T10:31:49.204Z,27.5
2019-06-20T10:32:58.280Z,27.7
2019-06-20T10:34:05.553Z,27.8
2019-06-20T10:35:12.500Z,27.8
2019-06-20T10:36:19.457Z,27.9
2019-06-20T10:37:26.710Z,27.7
2019-06-20T10:38:33.918Z,27.9
2019-06-20T10:39:41.157Z,28.2
2019-06-20T10:40:49.807Z,28.4
2019-06-20T10:41:58.322Z,28.3
2019-06-20T10:43:05.559Z,28
2019-06-20T10:44:12.253Z,27.8
2019-06-20T10:45:19.493Z,27.8
2019-06-20T10:46:26.463Z,27.7
2019-06-20T10:47:36.329Z,27.7
2019-06-20T10:48:45.876Z,27.8
2019-06-20T10:49:54.218Z,27.7
2019-06-20T10:51:01.189Z,27.8
2019-06-20T10:52:08.158Z,27.9
2019-06-20T10:53:15.401Z,28
2019-06-20T10:54:22.625Z,28
2019-06-20T10:55:29.850Z,28.1
2019-06-20T10:56:36.820Z,28.2
2019-06-20T10:57:45.053Z,28.5
2019-06-20T10:58:55.512Z,28.7
2019-06-20T11:00:02.772Z,28.6
2019-06-20T11:01:09.716Z,28.6
2019-06-20T11:02:16.407Z,28.2
2019-06-20T11:03:23.626Z,28
2019-06-20T11:04:30.846Z,27.9
2019-06-20T11:05:39.053Z,28
2019-06-20T11:06:50.210Z,28.3
2019-06-20T11:07:57.464Z,28.4
2019-06-20T11:09:04.482Z,28.2
2019-06-20T11:10:11.699Z,28.1
2019-06-20T11:11:18.654Z,28.2
2019-06-20T11:12:25.603Z,28
2019-06-20T11:13:32.273Z,28
2019-06-20T11:14:42.059Z,27.9
2019-06-20T11:15:50.438Z,27.8
2019-06-20T11:16:57.382Z,27.8
2019-06-20T11:18:04.631Z,28.1
2019-06-20T11:19:11.932Z,28.4
2019-06-20T11:20:19.178Z,28.5
2019-06-20T11:21:26.146Z,28.6
2019-06-20T11:22:33.364Z,28.5
2019-06-20T11:23:41.378Z,28.8
2019-06-20T11:24:49.755Z,28.9
2019-06-20T11:25:56.974Z,29
2019-06-20T11:27:04.209Z,29.2
2019-06-20T11:28:11.168Z,29.1
2019-06-20T11:29:18.410Z,29.1
2019-06-20T11:30:25.630Z,28.9
2019-06-20T11:31:32.575Z,28.8
2019-06-20T11:32:40.982Z,28.6
2019-06-20T11:33:48.922Z,28.6
2019-06-20T11:34:56.149Z,28.6
2019-06-20T11:36:03.376Z,28.5
2019-06-20T11:37:10.314Z,28.4
2019-06-20T11:38:17.656Z,28.4
2019-06-20T11:39:24.888Z,28.3
2019-06-20T11:40:32.111Z,28.3
2019-06-20T11:41:40.085Z,28.5
2019-06-20T11:42:48.429Z,28.6
2019-06-20T11:43:55.657Z,29.1
2019-06-20T11:45:02.891Z,29.4
2019-06-20T11:46:10.123Z,29.4
2019-06-20T11:47:19.914Z,28.8
2019-06-20T11:48:27.766Z,28.5
2019-06-20T11:49:36.534Z,28.6
2019-06-20T11:50:44.925Z,28.3
2019-06-20T11:51:53.354Z,28.3
2019-06-20T11:53:00.301Z,28.2
2019-06-20T11:54:07.542Z,28.1
2019-06-20T11:55:14.775Z,28.3
2019-06-20T11:56:22.017Z,28.3
2019-06-20T11:57:29.261Z,28.4
2019-06-20T11:58:36.482Z,28.2
2019-06-20T11:59:43.713Z,27.7
2019-06-20T12:01:04.262Z,27.7
2019-06-20T12:02:11.570Z,27.8
2019-06-20T12:03:18.531Z,28
2019-06-20T12:04:25.795Z,28.1
2019-06-20T12:05:33.126Z,28.3
2019-06-20T12:06:42.993Z,28.6
2019-06-20T12:07:51.798Z,29.1
2019-06-20T12:08:59.019Z,29
2019-06-20T12:10:06.270Z,28.9
2019-06-20T12:11:13.238Z,29.2
2019-06-20T12:12:20.500Z,29.5
2019-06-20T12:13:27.720Z,29.4
2019-06-20T12:14:34.956Z,28.9
2019-06-20T12:15:44.387Z,28.7
2019-06-20T12:16:52.881Z,28.3
2019-06-20T12:18:00.112Z,28.1
2019-06-20T12:19:07.338Z,27.6
2019-06-20T12:20:14.294Z,27.5
2019-06-20T12:21:21.539Z,27.4
2019-06-20T12:22:28.494Z,27.5
2019-06-20T12:23:35.178Z,27.3
2019-06-20T12:24:44.507Z,27.3
2019-06-20T12:25:52.994Z,27.5
2019-06-20T12:27:00.218Z,27.8
2019-06-20T12:28:07.183Z,28.1
2019-06-20T12:29:14.426Z,28.3
2019-06-20T12:30:21.672Z,28.1
2019-06-20T12:31:28.894Z,28
2019-06-20T12:32:36.148Z,27.8
2019-06-20T12:33:43.379Z,28
2019-06-20T12:34:51.924Z,28.2
2019-06-20T12:35:59.148Z,28.4
2019-06-20T12:37:06.435Z,28.9
2019-06-20T12:38:15.700Z,29.2
2019-06-20T12:39:22.943Z,29.7
2019-06-20T12:40:30.162Z,30.1
2019-06-20T12:41:37.159Z,29.6
2019-06-20T12:42:47.500Z,29.4
2019-06-20T12:43:56.164Z,29
2019-06-20T12:45:03.390Z,28.8
2019-06-20T12:46:10.342Z,28.9
2019-06-20T12:47:17.292Z,29
2019-06-20T12:48:24.536Z,29.1
2019-06-20T12:49:31.765Z,29
2019-06-20T12:50:41.415Z,28.8
2019-06-20T12:51:50.205Z,28.3
2019-06-20T12:52:57.432Z,28.2
2019-06-20T12:54:04.664Z,28.1
2019-06-20T12:55:11.902Z,28
2019-06-20T12:56:19.149Z,27.9
2019-06-20T12:57:26.406Z,28
2019-06-20T12:58:33.368Z,27.9
2019-06-20T12:59:44.176Z,27.8
2019-06-20T13:00:54.482Z,27.7
2019-06-20T13:02:01.726Z,27.6
2019-06-20T13:03:08.958Z,27.2
2019-06-20T13:04:16.233Z,27
2019-06-20T13:05:23.456Z,26.8
2019-06-20T13:06:30.701Z,26.7
2019-06-20T13:07:40.560Z,26.7
2019-06-20T13:08:50.557Z,26.5
2019-06-20T13:09:57.774Z,26.5
2019-06-20T13:11:05.025Z,26.5
2019-06-20T13:12:12.248Z,26.4
2019-06-20T13:13:19.481Z,26.3
2019-06-20T13:14:26.715Z,26.4
2019-06-20T13:15:33.972Z,26.4
2019-06-20T13:16:41.205Z,26.4
2019-06-20T13:17:49.924Z,26.2
2019-06-20T13:18:57.215Z,26.1
2019-06-20T13:20:04.244Z,26
2019-06-20T13:21:11.474Z,25.8
2019-06-20T13:22:18.721Z,25.7
2019-06-20T13:23:25.938Z,25.8
2019-06-20T13:24:33.213Z,25.8
2019-06-20T13:25:42.559Z,25.7
2019-06-20T13:26:51.325Z,25.6
2019-06-20T13:28:00.056Z,25.4
2019-06-20T13:29:07.076Z,25.3
2019-06-20T13:30:14.312Z,25.1
2019-06-20T13:31:21.320Z,24.8
2019-06-20T13:32:28.543Z,24.6
2019-06-20T13:33:35.779Z,24.5
2019-06-20T13:34:46.867Z,24.5
2019-06-20T13:35:55.676Z,24.4
2019-06-20T13:37:02.612Z,24.4
2019-06-20T13:38:09.852Z,24.3
2019-06-20T13:39:17.088Z,24.2
2019-06-20T13:40:24.343Z,24.1
2019-06-20T13:41:31.579Z,24.1
2019-06-20T13:42:42.211Z,23.9
2019-06-20T13:43:52.450Z,23.6
2019-06-20T13:44:59.415Z,23.2
2019-06-20T13:46:06.658Z,23
2019-06-20T13:47:13.622Z,22.9
2019-06-20T13:48:20.569Z,22.8
2019-06-20T13:49:27.828Z,22.6
2019-06-20T13:50:35.062Z,22.4
2019-06-20T13:51:43.346Z,22.4
2019-06-20T13:52:52.148Z,22.4
2019-06-20T13:53:59.389Z,22.4
2019-06-20T13:55:06.635Z,22.3
2019-06-20T13:56:13.889Z,22.6
2019-06-20T13:57:21.120Z,22.8
2019-06-20T13:58:28.075Z,23.1
2019-06-20T13:59:35.351Z,23.4
2019-06-20T14:00:45.585Z,23.5
2019-06-20T14:02:07.236Z,23.6
2019-06-20T14:03:13.959Z,23.7
2019-06-20T14:04:21.196Z,23.8
2019-06-20T14:05:28.485Z,23.9
2019-06-20T14:06:35.728Z,24
2019-06-20T14:07:51.760Z,24.3
2019-06-20T14:09:02.729Z,24.4
2019-06-20T14:10:09.977Z,24.5
2019-06-20T14:11:17.250Z,24.6
2019-06-20T14:12:23.931Z,24.5
2019-06-20T14:13:30.876Z,24.5
2019-06-20T14:14:38.127Z,24.6
2019-06-20T14:15:46.622Z,24.8
2019-06-20T14:16:55.277Z,24.9
2019-06-20T14:18:02.538Z,24.9
2019-06-20T14:19:09.786Z,24.9
2019-06-20T14:20:17.019Z,25.1
2019-06-20T14:21:24.244Z,25
2019-06-20T14:22:31.461Z,25
2019-06-20T14:23:38.725Z,25
2019-06-20T14:24:48.613Z,25
2019-06-20T14:25:57.289Z,24.9
2019-06-20T14:27:06.052Z,24.9
2019-06-20T14:28:13.304Z,24.9
2019-06-20T14:29:20.277Z,24.9
2019-06-20T14:30:27.321Z,24.9
2019-06-20T14:31:34.537Z,24.9
2019-06-20T14:32:43.655Z,24.9
2019-06-20T14:33:51.252Z,24.8
2019-06-20T14:34:58.535Z,24.6
2019-06-20T14:36:05.493Z,24.5
2019-06-20T14:37:12.741Z,24.5
2019-06-20T14:38:20.230Z,24.4
2019-06-20T14:39:27.467Z,24.3
2019-06-20T14:40:34.720Z,24
2019-06-20T14:41:43.513Z,23.8
2019-06-20T14:42:54.322Z,23.9
2019-06-20T14:44:01.638Z,24
2019-06-20T14:45:08.880Z,24
2019-06-20T14:46:16.174Z,23.9
2019-06-20T14:47:23.408Z,24
2019-06-20T14:48:30.657Z,24
2019-06-20T14:49:37.897Z,24
2019-06-20T14:50:49.243Z,24
2019-06-20T14:51:59.671Z,24.1
2019-06-20T14:53:06.914Z,24.1
2019-06-20T14:54:13.948Z,24.1
2019-06-20T14:55:21.193Z,24.1
2019-06-20T14:56:28.136Z,23.9
2019-06-20T14:57:35.372Z,23.8
2019-06-20T14:58:46.600Z,23.9
2019-06-20T14:59:55.013Z,23.9
2019-06-20T15:01:02.248Z,23.8
2019-06-20T15:02:09.497Z,23.8
2019-06-20T15:03:16.778Z,23.8
2019-06-20T15:04:24.006Z,23.7
2019-06-20T15:05:34.643Z,23.7